Time;durP1;ratioP1;P1;durP2;ratioP2;P2;SDS_P1;SDS_P2;PMS_P1;PMS_P2;Temp;Humidity;BMP_temperature;BMP_pressure;BME280_temperature;BME280_humidity;BME280_pressure;Samples;Min_cycle;Max_cycle;Signal;HPM_P1;HPM_P2
2022/09/27 00:01:03;;;;;;;13.40;9.00;;;10.50;99.90;10.00;98981;;;;593594;242;24098;-83
2022/09/27 00:03:31;;;;;;;13.00;9.70;;;10.50;99.90;10.00;98972;;;;583732;243;24100;-82
2022/09/27 00:06:08;;;;;;;15.80;9.87;;;10.50;99.90;10.00;98974;;;;584237;243;24100;-82
2022/09/27 00:08:36;;;;;;;13.83;9.23;;;10.50;99.90;10.00;98971;;;;583732;243;24046;-82
2022/09/27 00:11:06;;;;;;;14.33;9.70;;;10.50;99.90;10.00;98967;;;;584013;243;24117;-82
2022/09/27 00:13:34;;;;;;;12.60;9.47;;;10.50;99.90;10.00;98967;;;;584279;243;24042;-82
2022/09/27 00:16:07;;;;;;;15.33;9.47;;;10.50;99.90;10.00;98963;;;;584090;243;24035;-81
2022/09/27 00:18:34;;;;;;;13.00;9.33;;;10.50;99.90;10.00;98965;;;;583810;243;24129;-82
2022/09/27 00:21:07;;;;;;;19.30;14.40;;;10.50;99.90;9.90;98969;;;;578390;243;34937;-82
2022/09/27 00:23:35;;;;;;;14.90;10.90;;;10.50;99.90;9.90;98965;;;;586068;242;24037;-82
2022/09/27 00:26:06;;;;;;;13.73;10.27;;;10.50;99.90;9.90;98959;;;;585578;242;24053;-83
2022/09/27 00:28:34;;;;;;;14.87;10.30;;;10.40;99.90;9.90;98953;;;;585160;242;24066;-84
2022/09/27 00:31:02;;;;;;;16.70;10.87;;;10.40;99.90;9.90;98954;;;;584990;242;24067;-83
2022/09/27 00:33:31;;;;;;;14.13;9.63;;;10.30;99.90;9.80;98958;;;;592254;242;24049;-83
2022/09/27 00:35:56;;;;;;;13.50;9.57;;;10.30;99.90;9.80;98948;;;;582643;242;24031;-83
2022/09/27 00:38:23;;;;;;;14.70;9.93;;;10.30;99.90;9.70;98956;;;;584238;242;24152;-83
2022/09/27 00:40:51;;;;;;;18.10;9.73;;;10.30;99.90;9.70;98958;;;;584465;243;24047;-84
2022/09/27 00:43:23;;;;;;;13.20;9.53;;;10.30;99.90;9.70;98952;;;;584696;243;24039;-82
2022/09/27 00:45:53;;;;;;;15.00;10.00;;;10.20;99.90;9.70;98958;;;;584211;243;24072;-82
2022/09/27 00:48:21;;;;;;;13.33;9.33;;;10.20;99.90;9.60;98949;;;;584087;243;24096;-81
2022/09/27 00:50:49;;;;;;;15.10;10.33;;;10.20;99.90;9.60;98947;;;;584418;243;24061;-83
2022/09/27 00:53:20;;;;;;;12.47;9.43;;;10.20;99.90;9.60;98936;;;;584451;243;24066;-83
2022/09/27 00:55:50;;;;;;;13.07;8.43;;;10.10;99.90;9.60;98932;;;;583627;243;24055;-83
2022/09/27 00:58:18;;;;;;;14.70;9.17;;;10.10;99.90;9.50;98934;;;;583806;243;24067;-83
2022/09/27 01:00:46;;;;;;;15.60;10.63;;;10.00;99.90;9.40;98939;;;;583599;243;24067;-83
2022/09/27 01:03:15;;;;;;;16.97;10.47;;;10.00;99.90;9.40;98942;;;;583659;243;24094;-82
2022/09/27 01:05:43;;;;;;;13.73;9.70;;;9.90;99.90;9.40;98933;;;;583515;243;24041;-82
2022/09/27 01:08:11;;;;;;;14.83;10.03;;;9.90;99.90;9.30;98933;;;;584458;243;24082;-83
2022/09/27 01:10:42;;;;;;;15.90;10.67;;;9.90;99.90;9.30;98937;;;;582001;243;24044;-83
2022/09/27 01:13:25;;;;;;;21.23;16.60;;;9.90;99.90;9.30;98925;;;;577998;243;34981;-83
2022/09/27 01:16:22;;;;;;;14.23;11.20;;;9.90;99.90;9.30;98928;;;;581741;243;24067;-83
2022/09/27 01:19:11;;;;;;;16.23;11.07;;;9.90;99.90;9.40;98925;;;;578284;243;24103;-81
2022/09/27 01:21:50;;;;;;;15.47;11.03;;;9.90;99.90;9.40;98928;;;;572333;247;24105;-82
2022/09/27 01:24:39;;;;;;;21.37;16.77;;;10.00;99.90;9.40;98922;;;;575349;247;35153;-82
2022/09/27 01:27:31;;;;;;;15.93;12.03;;;10.00;99.90;9.50;98918;;;;585524;243;24120;-82
2022/09/27 01:30:20;;;;;;;17.17;11.53;;;10.00;99.90;9.50;98916;;;;584041;243;24161;-82
2022/09/27 01:32:56;;;;;;;16.13;11.03;;;10.10;99.90;9.50;98906;;;;593154;241;24050;-82
2022/09/27 01:35:48;;;;;;;16.60;10.53;;;10.10;99.90;9.50;98907;;;;585074;242;24024;-82
2022/09/27 01:38:34;;;;;;;17.50;12.27;;;10.10;99.90;9.60;98903;;;;584406;242;24076;-82
2022/09/27 01:41:02;;;;;;;17.40;10.17;;;10.10;99.90;9.60;98897;;;;563039;251;24069;-82
2022/09/27 01:43:45;;;;;;;15.37;10.20;;;10.10;99.90;9.50;98906;;;;592411;242;24141;-82
2022/09/27 01:46:15;;;;;;;18.87;10.53;;;10.10;99.90;9.50;98908;;;;583874;242;24045;-82
2022/09/27 01:48:43;;;;;;;17.10;10.50;;;10.10;99.90;9.50;98905;;;;583079;242;24122;-82
2022/09/27 01:51:14;;;;;;;14.00;9.23;;;10.10;99.90;9.40;98901;;;;584486;243;24096;-82
2022/09/27 01:53:47;;;;;;;14.83;10.00;;;10.00;99.90;9.30;98909;;;;593439;242;24114;-81
2022/09/27 01:56:18;;;;;;;12.27;9.23;;;9.90;99.90;9.30;98908;;;;584454;243;24054;-82
2022/09/27 01:59:01;;;;;;;17.37;9.47;;;9.90;99.90;9.20;98893;;;;584203;243;24103;-83
2022/09/27 02:01:29;;;;;;;17.47;9.40;;;9.80;99.90;9.10;98903;;;;584044;243;25113;-82
2022/09/27 02:04:00;;;;;;;13.67;9.67;;;9.70;99.90;9.10;98891;;;;571280;248;24164;-82
2022/09/27 02:06:27;;;;;;;11.30;9.20;;;9.70;99.90;9.10;98904;;;;584323;243;24057;-83
2022/09/27 02:08:59;;;;;;;13.03;8.57;;;9.70;99.90;9.10;98894;;;;593195;242;24043;-83
2022/09/27 02:11:29;;;;;;;13.40;9.33;;;9.70;99.90;9.10;98894;;;;583918;243;24095;-83
2022/09/27 02:14:00;;;;;;;14.10;9.43;;;9.70;99.90;9.10;98894;;;;583775;243;24038;-82
2022/09/27 02:16:42;;;;;;;13.23;9.13;;;9.70;99.90;9.20;98897;;;;581690;243;24040;-82
2022/09/27 02:19:39;;;;;;;15.57;9.57;;;9.70;99.90;9.20;98893;;;;583954;243;24088;-82
2022/09/27 02:22:39;;;;;;;14.43;9.30;;;9.70;99.90;9.20;98894;;;;581991;243;24088;-81
2022/09/27 02:25:22;;;;;;;12.87;8.93;;;9.80;99.90;9.20;98890;;;;593002;242;24066;-81
2022/09/27 02:28:01;;;;;;;15.93;7.87;;;9.80;99.90;9.20;98893;;;;583934;243;24129;-82
2022/09/27 02:30:32;;;;;;;14.07;9.63;;;9.80;99.90;9.30;98892;;;;584563;243;24141;-82
2022/09/27 02:33:02;;;;;;;12.63;9.10;;;9.80;99.90;9.20;98891;;;;582574;243;24100;-81
2022/09/27 02:35:31;;;;;;;17.10;9.13;;;9.80;99.90;9.20;98873;;;;584490;243;24129;-82
2022/09/27 02:37:59;;;;;;;15.13;9.70;;;9.80;99.90;9.20;98877;;;;582973;243;24049;-81
2022/09/27 02:40:27;;;;;;;14.73;9.33;;;9.80;99.90;9.20;98870;;;;582932;243;24088;-81
2022/09/27 02:42:58;;;;;;;15.63;10.10;;;9.80;99.90;9.20;98873;;;;584195;243;24149;-82
2022/09/27 02:45:23;;;;;;;16.50;10.23;;;9.80;99.90;9.20;98869;;;;584792;242;24068;-83
2022/09/27 02:48:02;;;;;;;12.63;9.37;;;9.70;99.90;9.10;98868;;;;585042;242;24086;-82
2022/09/27 02:50:50;;;;;;;15.47;10.07;;;9.70;99.90;9.10;98870;;;;580612;242;24089;-84
2022/09/27 02:53:45;;;;;;;11.07;8.83;;;9.60;99.90;9.00;98866;;;;584744;242;24076;-82
2022/09/27 02:56:25;;;;;;;14.80;10.37;;;9.60;99.90;8.90;98865;;;;584869;242;24087;-82
2022/09/27 02:59:14;;;;;;;16.10;9.77;;;9.50;99.90;8.80;98861;;;;584061;242;24070;-82
2022/09/27 03:02:11;;;;;;;16.20;10.37;;;9.40;99.90;8.80;98868;;;;585239;242;24062;-83
2022/09/27 03:04:57;;;;;;;19.23;10.70;;;9.30;99.90;8.70;98854;;;;585121;243;24058;-82
2022/09/27 03:07:29;;;;;;;17.43;10.30;;;9.20;99.90;8.60;98859;;;;584567;243;24100;-81
2022/09/27 03:09:53;;;;;;;14.80;10.43;;;9.20;99.90;8.60;98869;;;;583167;243;24090;-82
2022/09/27 03:12:27;;;;;;;18.27;11.27;;;9.20;99.90;8.60;98856;;;;585392;243;24052;-82
2022/09/27 03:15:01;;;;;;;15.93;10.53;;;9.10;99.90;8.50;98859;;;;585439;243;24038;-83
2022/09/27 03:17:28;;;;;;;21.63;11.40;;;9.10;99.90;8.50;98850;;;;584627;243;24057;-83
2022/09/27 03:19:53;;;;;;;17.97;11.37;;;9.00;99.90;8.40;98864;;;;593846;241;24036;-82
2022/09/27 03:22:21;;;;;;;18.10;11.47;;;9.00;99.90;8.30;98852;;;;582993;243;24087;-83
2022/09/27 03:24:49;;;;;;;18.17;12.17;;;8.90;99.90;8.30;98855;;;;582699;243;24128;-83
2022/09/27 03:27:20;;;;;;;19.00;12.10;;;8.90;99.90;8.30;98858;;;;582460;243;24056;-83
2022/09/27 03:29:45;;;;;;;18.80;10.53;;;8.80;99.90;8.20;98844;;;;583817;243;24034;-83
2022/09/27 03:32:13;;;;;;;22.23;11.33;;;8.80;99.90;8.20;98839;;;;582513;243;24074;-83
2022/09/27 03:34:41;;;;;;;21.83;12.20;;;8.70;99.90;8.10;98833;;;;582481;243;24090;-83
2022/09/27 03:37:09;;;;;;;20.73;11.80;;;8.70;99.90;8.10;98841;;;;582546;243;24079;-83
2022/09/27 03:39:37;;;;;;;21.77;13.30;;;8.60;99.90;8.10;98837;;;;582453;243;24036;-82
2022/09/27 03:42:05;;;;;;;17.57;11.70;;;8.60;99.90;8.00;98833;;;;582546;243;24032;-83
2022/09/27 03:44:33;;;;;;;20.97;12.60;;;8.60;99.90;8.00;98828;;;;582565;243;24090;-82
2022/09/27 03:47:01;;;;;;;20.77;11.83;;;8.60;99.90;8.00;98821;;;;594247;242;24090;-83
2022/09/27 03:49:32;;;;;;;18.90;12.70;;;8.50;99.90;8.00;98826;;;;583378;243;24141;-83
2022/09/27 03:52:00;;;;;;;20.10;13.13;;;8.50;99.90;8.00;98817;;;;584844;243;24035;-83
2022/09/27 03:54:25;;;;;;;20.83;13.40;;;8.50;99.90;7.90;98823;;;;584678;243;24038;-83
2022/09/27 03:56:53;;;;;;;18.20;12.10;;;8.50;99.90;7.90;98819;;;;584039;242;24014;-83
2022/09/27 03:59:21;;;;;;;19.13;12.73;;;8.50;99.90;7.90;98813;;;;584317;242;24042;-83
2022/09/27 04:01:48;;;;;;;19.87;12.53;;;8.50;99.90;7.80;98812;;;;583696;242;24104;-83
2022/09/27 04:04:17;;;;;;;20.83;12.27;;;8.40;99.90;7.80;98815;;;;582944;242;24104;-83
2022/09/27 04:06:45;;;;;;;22.97;12.73;;;8.30;99.90;7.80;98811;;;;582552;242;24053;-83
2022/09/27 04:09:14;;;;;;;23.50;13.70;;;8.30;99.90;7.70;98810;;;;582708;242;24023;-83
2022/09/27 04:11:42;;;;;;;17.67;12.27;;;8.30;99.90;7.60;98810;;;;582939;242;24071;-83
2022/09/27 04:14:11;;;;;;;23.50;13.60;;;8.30;99.90;7.60;98818;;;;582779;242;24027;-83
2022/09/27 04:16:38;;;;;;;21.63;13.83;;;8.20;99.90;7.50;98826;;;;582432;243;24062;-82
2022/09/27 04:19:06;;;;;;;20.83;12.77;;;8.10;99.90;7.40;98822;;;;582752;243;24056;-82
2022/09/27 04:21:33;;;;;;;19.23;13.17;;;8.00;99.90;7.40;98824;;;;584193;243;24038;-83
2022/09/27 04:24:04;;;;;;;19.10;13.50;;;8.00;99.90;7.40;98824;;;;583772;243;24098;-83
2022/09/27 04:26:30;;;;;;;20.70;13.07;;;8.00;99.90;7.40;98817;;;;581447;243;25115;-83
2022/09/27 04:28:58;;;;;;;20.77;13.17;;;8.00;99.90;7.50;98822;;;;582362;243;24067;-82
2022/09/27 04:31:29;;;;;;;18.97;12.57;;;8.00;99.90;7.50;98821;;;;582441;243;24078;-83
2022/09/27 04:33:54;;;;;;;23.53;13.77;;;8.00;99.90;7.50;98822;;;;584155;243;24034;-82
2022/09/27 04:36:27;;;;;;;23.50;13.07;;;8.10;99.90;7.50;98815;;;;583158;243;25189;-83
2022/09/27 04:38:59;;;;;;;21.83;13.27;;;8.10;99.90;7.60;98815;;;;585038;243;24099;-82
2022/09/27 04:41:26;;;;;;;29.70;14.00;;;8.10;99.90;7.60;98816;;;;584529;243;24051;-82
2022/09/27 04:43:54;;;;;;;22.97;14.33;;;8.10;99.90;7.60;98817;;;;593686;242;24057;-82
2022/09/27 04:46:20;;;;;;;25.37;13.10;;;8.10;99.90;7.60;98805;;;;584238;243;24086;-82
2022/09/27 04:48:50;;;;;;;22.60;13.63;;;8.10;99.90;7.60;98806;;;;584918;243;24089;-82
2022/09/27 04:51:18;;;;;;;25.00;13.43;;;8.20;99.90;7.70;98812;;;;583180;243;24023;-82
2022/09/27 04:53:45;;;;;;;32.90;14.33;;;8.20;99.90;7.70;98810;;;;584395;242;24169;-81
2022/09/27 04:56:14;;;;;;;22.33;14.20;;;8.20;99.90;7.80;98803;;;;582613;243;24069;-82
2022/09/27 04:58:41;;;;;;;28.13;14.27;;;8.30;99.90;7.80;98801;;;;584312;243;24061;-82
2022/09/27 05:01:12;;;;;;;25.80;14.67;;;8.30;99.90;7.90;98805;;;;582236;243;24077;-82
2022/09/27 05:03:37;;;;;;;21.43;14.63;;;8.40;99.90;7.90;98804;;;;581923;243;24053;-82
2022/09/27 05:06:05;;;;;;;19.87;13.50;;;8.40;99.90;8.00;98805;;;;582059;243;24061;-82
2022/09/27 05:08:33;;;;;;;22.80;14.27;;;8.50;99.90;8.00;98806;;;;584632;242;24052;-83
2022/09/27 05:11:04;;;;;;;23.83;14.00;;;8.60;99.90;8.10;98804;;;;583188;242;24045;-82
2022/09/27 05:13:29;;;;;;;22.47;14.57;;;8.60;99.90;8.20;98811;;;;584528;242;24096;-82
2022/09/27 05:15:57;;;;;;;22.37;15.30;;;8.70;99.90;8.30;98804;;;;582880;242;24080;-82
2022/09/27 05:18:25;;;;;;;22.93;15.00;;;8.80;99.90;8.40;98802;;;;583982;242;24064;-83
2022/09/27 05:20:52;;;;;;;26.07;14.40;;;8.90;99.90;8.50;98807;;;;582644;242;24039;-83
2022/09/27 05:23:20;;;;;;;30.57;16.70;;;9.00;99.90;8.60;98798;;;;582685;242;24070;-83
2022/09/27 05:25:48;;;;;;;33.73;18.17;;;9.10;99.90;8.70;98805;;;;583564;243;24057;-83
2022/09/27 05:28:16;;;;;;;43.10;18.97;;;9.20;99.90;8.70;98808;;;;584390;243;24030;-83
2022/09/27 05:30:45;;;;;;;41.80;17.63;;;9.30;99.90;8.80;98801;;;;584300;243;24053;-83
2022/09/27 05:33:13;;;;;;;54.23;17.07;;;9.30;99.90;8.90;98803;;;;583081;243;24155;-83
2022/09/27 05:35:46;;;;;;;73.50;15.93;;;9.40;99.90;8.90;98808;;;;582734;243;24034;-83
2022/09/27 05:38:10;;;;;;;51.77;16.10;;;9.40;99.90;8.90;98803;;;;582360;243;24060;-83
2022/09/27 05:40:38;;;;;;;70.30;18.37;;;9.50;99.90;9.10;98803;;;;582537;243;24093;-83
2022/09/27 05:43:06;;;;;;;39.47;16.43;;;9.60;99.90;9.10;98795;;;;582627;243;24062;-83
2022/09/27 05:45:34;;;;;;;75.57;15.50;;;9.70;99.90;9.20;98796;;;;583862;242;24029;-83
2022/09/27 05:48:06;;;;;;;42.97;15.50;;;9.70;99.90;9.30;98799;;;;582330;243;24108;-82
2022/09/27 05:50:33;;;;;;;38.43;15.03;;;9.80;99.90;9.40;98798;;;;583803;243;24059;-84
2022/09/27 05:52:58;;;;;;;40.63;13.57;;;9.90;99.90;9.50;98804;;;;593240;236;24042;-83
2022/09/27 05:55:26;;;;;;;31.80;13.83;;;10.00;99.90;9.70;98801;;;;583730;243;24079;-84
2022/09/27 05:58:00;;;;;;;30.97;14.77;;;10.20;99.90;9.80;98802;;;;585738;243;24045;-83
2022/09/27 06:00:31;;;;;;;41.97;13.63;;;10.30;99.90;10.00;98811;;;;585619;243;24048;-84
2022/09/27 06:03:01;;;;;;;38.67;14.20;;;10.50;99.90;10.10;98803;;;;585204;243;24067;-82
2022/09/27 06:05:26;;;;;;;45.00;15.47;;;10.60;99.90;10.10;98796;;;;585232;240;24040;-82
2022/09/27 06:08:03;;;;;;;51.03;14.33;;;10.60;99.90;10.20;98796;;;;585452;243;24077;-81
2022/09/27 06:10:32;;;;;;;67.15;21.52;;;10.70;99.90;10.30;98798;;;;587604;242;35097;-81
2022/09/27 06:13:02;;;;;;;41.33;15.97;;;10.80;99.90;10.30;98800;;;;583370;243;24060;-83
2022/09/27 06:15:33;;;;;;;45.57;16.83;;;10.90;99.90;10.40;98799;;;;583551;243;25104;-83
2022/09/27 06:17:58;;;;;;;38.23;15.87;;;11.00;99.90;10.60;98800;;;;583362;243;24032;-83
2022/09/27 06:20:26;;;;;;;28.93;15.43;;;11.10;99.90;10.60;98799;;;;584545;242;24060;-81
2022/09/27 06:22:57;;;;;;;24.67;15.23;;;11.20;99.90;10.60;98797;;;;585880;242;24106;-83
2022/09/27 06:25:25;;;;;;;45.93;16.53;;;11.20;99.90;10.60;98799;;;;584779;241;24103;-82
2022/09/27 06:27:57;;;;;;;24.37;16.10;;;11.20;99.90;10.60;98801;;;;585252;242;24039;-83
2022/09/27 06:30:22;;;;;;;33.43;17.77;;;11.20;99.90;10.60;98803;;;;589812;242;24103;-82
2022/09/27 06:32:50;;;;;;;33.37;16.13;;;11.20;99.90;10.70;98801;;;;594080;240;24133;-84
2022/09/27 06:35:23;;;;;;;44.63;16.77;;;11.30;99.90;10.60;98797;;;;582760;242;24102;-83
2022/09/27 06:37:49;;;;;;;23.13;15.57;;;11.30;99.90;10.70;98797;;;;591595;242;24085;-83
2022/09/27 06:40:26;;;;;;;26.47;15.40;;;11.30;99.90;10.70;98806;;;;584452;243;24015;-82
2022/09/27 06:42:46;;;;;;;30.33;17.80;;;11.30;99.90;10.60;98808;;;;583684;243;24042;-83
2022/09/27 06:45:21;;;;;;;33.90;16.20;;;11.30;99.90;10.70;98802;;;;585038;243;24041;-84
2022/09/27 06:47:45;;;;;;;36.20;15.33;;;11.30;99.90;10.70;98813;;;;584793;243;24130;-84
2022/09/27 06:50:13;;;;;;;32.83;17.23;;;11.30;99.90;10.70;98809;;;;584737;243;24038;-81
2022/09/27 06:52:50;;;;;;;30.60;16.47;;;11.30;99.90;10.70;98814;;;;585450;243;24069;-82
2022/09/27 06:55:16;;;;;;;38.07;17.83;;;11.40;99.90;10.80;98809;;;;585109;243;24095;-83
2022/09/27 07:00:29;;;;;;;40.70;18.17;;;11.40;99.90;10.80;98817;;;;584488;243;24046;-83
2022/09/27 07:03:01;;;;;;;42.27;19.47;;;11.40;99.90;10.90;98818;;;;592945;242;24043;-82
2022/09/27 07:05:25;;;;;;;40.90;18.90;;;11.40;99.90;11.00;98824;;;;585177;243;24070;-83
2022/09/27 07:07:56;;;;;;;59.93;19.40;;;11.50;99.90;11.00;98820;;;;585185;243;24097;-82
2022/09/27 07:10:21;;;;;;;53.90;22.07;;;11.60;99.90;11.20;98819;;;;583585;243;24072;-83
2022/09/27 07:12:49;;;;;;;46.17;19.77;;;11.70;99.90;11.20;98817;;;;585776;243;24011;-83
2022/09/27 07:15:18;;;;;;;104.07;24.50;;;11.80;99.90;11.30;98823;;;;585650;243;23995;-83
2022/09/27 07:17:45;;;;;;;67.07;22.53;;;11.90;99.90;11.40;98826;;;;585407;242;24035;-83
2022/09/27 07:20:13;;;;;;;40.80;24.40;;;11.90;99.90;11.40;98834;;;;585061;243;24094;-83
2022/09/27 07:22:41;;;;;;;45.00;25.10;;;12.00;99.90;11.40;98832;;;;584824;243;24052;-84
2022/09/27 07:25:09;;;;;;;46.10;25.87;;;12.00;99.90;11.50;98841;;;;584670;243;24061;-84
2022/09/27 07:27:37;;;;;;;45.23;24.67;;;12.00;99.90;11.50;98830;;;;584679;243;24066;-84
2022/09/27 07:30:12;;;;;;;43.90;26.43;;;12.10;99.90;11.50;98826;;;;585028;243;24041;-82
2022/09/27 07:32:39;;;;;;;49.93;26.97;;;12.10;99.90;11.60;98823;;;;591041;242;24026;-85
2022/09/27 07:35:04;;;;;;;40.57;25.17;;;12.20;99.90;11.70;98821;;;;586046;242;24038;-83
2022/09/27 07:37:39;;;;;;;44.87;25.73;;;12.30;99.90;11.80;98819;;;;585967;242;24053;-84
2022/09/27 07:40:06;;;;;;;42.83;25.50;;;12.40;99.90;11.80;98834;;;;583822;242;24033;-84
2022/09/27 07:42:34;;;;;;;45.73;26.20;;;12.40;99.90;11.70;98833;;;;585394;242;24086;-84
2022/09/27 07:44:59;;;;;;;43.97;24.83;;;12.40;99.90;11.80;98829;;;;593645;241;24089;-83
2022/09/27 07:47:29;;;;;;;43.30;25.03;;;12.40;99.90;11.90;98826;;;;595195;240;24071;-83
2022/09/27 07:50:00;;;;;;;44.07;25.30;;;12.40;99.90;12.00;98826;;;;585461;243;23995;-84
2022/09/27 07:52:26;;;;;;;38.67;23.73;;;12.50;99.90;12.00;98820;;;;585236;243;24038;-81
2022/09/27 07:54:56;;;;;;;38.83;25.33;;;12.60;99.90;12.10;98829;;;;585852;243;24082;-83
2022/09/27 07:57:25;;;;;;;39.83;24.53;;;12.70;99.90;12.20;98823;;;;585106;243;24079;-83
2022/09/27 07:59:51;;;;;;;38.73;24.60;;;12.80;99.90;12.30;98830;;;;582679;243;24046;-84
2022/09/27 08:02:20;;;;;;;37.80;24.07;;;12.90;99.90;12.40;98831;;;;584984;243;24142;-83
2022/09/27 08:04:47;;;;;;;36.90;23.57;;;12.90;99.90;12.40;98830;;;;584861;243;24029;-83
2022/09/27 08:22:54;;;;;;;36.37;25.80;;;13.50;99.90;12.70;98826;;;;618503;228;36977;-84
2022/09/27 08:25:23;;;;;;;34.87;23.27;;;13.40;99.90;12.90;98821;;;;607767;237;24055;-83
2022/09/27 08:27:59;;;;;;;42.30;24.60;;;13.40;99.90;13.10;98827;;;;607516;232;24021;-83
2022/09/27 08:30:31;;;;;;;32.93;22.03;;;13.70;99.90;13.20;98823;;;;607944;237;24045;-84
2022/09/27 08:32:58;;;;;;;30.13;21.87;;;13.70;99.90;13.30;98823;;;;606762;237;24045;-84
2022/09/27 08:35:30;;;;;;;31.80;23.17;;;13.80;99.90;13.30;98824;;;;607054;237;24037;-84
2022/09/27 08:37:59;;;;;;;37.90;24.43;;;14.00;99.90;13.50;98831;;;;606591;237;24033;-84
2022/09/27 08:41:02;;;;;;;33.13;23.23;;;14.30;99.90;13.80;98832;;;;606633;237;24030;-84
2022/09/27 08:43:41;;;;;;;35.93;21.63;;;14.30;99.90;14.10;98827;;;;605191;237;24089;-83
2022/09/27 08:46:47;;;;;;;33.93;22.00;;;14.90;99.90;14.40;98826;;;;606163;237;24049;-83
2022/09/27 08:49:17;;;;;;;33.37;21.53;;;14.90;99.90;14.80;98829;;;;606746;237;24064;-83
2022/09/27 08:51:46;;;;;;;27.30;20.80;;;15.70;99.90;15.20;98827;;;;599926;237;24066;-83
2022/09/27 08:54:14;;;;;;;27.40;21.57;;;15.70;99.90;15.20;98821;;;;606515;237;24059;-84
2022/09/27 08:56:42;;;;;;;30.50;22.67;;;15.80;99.90;15.40;98827;;;;606495;233;24123;-84
2022/09/27 08:59:21;;;;;;;26.23;21.13;;;16.00;99.90;15.60;98815;;;;606539;233;24064;-84
2022/09/27 09:01:52;;;;;;;35.30;21.63;;;16.20;99.90;15.70;98820;;;;605893;237;24030;-84
2022/09/27 09:04:26;;;;;;;29.40;21.10;;;16.30;99.90;15.70;98817;;;;606046;237;24046;-84
2022/09/27 09:06:57;;;;;;;26.40;19.97;;;16.30;99.90;16.10;98817;;;;606263;236;24053;-83
2022/09/27 09:09:45;;;;;;;31.47;20.97;;;16.60;99.90;16.40;98812;;;;605692;237;24076;-83
2022/09/27 09:12:48;;;;;;;31.40;19.27;;;17.00;99.90;16.60;98820;;;;605655;237;24134;-83
2022/09/27 09:15:31;;;;;;;24.27;19.03;;;17.30;99.90;16.60;98814;;;;595202;241;24122;-83
2022/09/27 09:18:15;;;;;;;37.33;20.23;;;17.30;99.90;16.60;98816;;;;593617;241;24113;-82
2022/09/27 09:21:21;;;;;;;26.33;18.87;;;17.30;99.90;16.70;98813;;;;594663;241;24073;-83
2022/09/27 09:24:16;;;;;;;22.43;17.50;;;17.30;99.90;17.20;98806;;;;594577;241;24069;-83
2022/09/27 09:27:02;;;;;;;23.23;17.80;;;17.70;99.90;17.70;98812;;;;594921;241;24077;-83
2022/09/27 09:29:45;;;;;;;24.70;17.73;;;18.60;99.90;18.00;98815;;;;594617;241;24075;-84
2022/09/27 09:32:25;;;;;;;26.27;18.77;;;18.50;99.90;17.90;98811;;;;595442;239;24124;-84
2022/09/27 09:35:02;;;;;;;33.10;16.57;;;18.20;99.90;17.40;98807;;;;595839;237;24104;-83
2022/09/27 09:37:38;;;;;;;18.77;15.77;;;18.20;99.90;17.10;98809;;;;595897;241;24057;-83
2022/09/27 09:40:39;;;;;;;20.97;16.53;;;17.90;99.90;17.20;98814;;;;596004;241;24088;-84
2022/09/27 09:43:25;;;;;;;22.17;16.47;;;17.80;99.90;17.90;98812;;;;593283;241;24120;-83
2022/09/27 09:46:16;;;;;;;19.60;16.93;;;19.50;99.90;19.20;98806;;;;595520;237;24210;-82
2022/09/27 09:48:45;;;;;;;23.90;17.20;;;19.40;99.90;20.20;98811;;;;595178;241;24066;-83
2022/09/27 09:51:27;;;;;;;21.58;19.40;;;20.60;99.90;21.20;98803;;;;590099;241;35268;-83
2022/09/27 09:57:02;;;;;;;19.03;16.80;;;23.60;99.90;22.60;98803;;;;580740;247;24090;-85
2022/09/27 09:59:27;;;;;;;20.03;15.07;;;23.50;99.90;23.20;98814;;;;569746;249;24102;-84
2022/09/27 10:01:55;;;;;;;15.73;14.33;;;24.30;99.20;23.10;98806;;;;586241;241;24078;-84
2022/09/27 10:04:31;;;;;;;16.90;13.57;;;24.40;97.30;22.60;98802;;;;594892;237;24095;-83
2022/09/27 10:06:56;;;;;;;14.67;13.17;;;24.00;95.30;21.90;98804;;;;594594;241;24103;-84
2022/09/27 10:09:25;;;;;;;15.20;13.70;;;23.40;96.10;21.30;98802;;;;595017;241;24104;-84
2022/09/27 10:11:56;;;;;;;14.97;12.23;;;22.80;96.50;21.20;98804;;;;594162;242;24084;-84
2022/09/27 10:14:24;;;;;;;14.53;12.63;;;22.40;97.40;21.00;98802;;;;594784;237;24062;-84
2022/09/27 10:16:57;;;;;;;13.60;12.27;;;22.10;97.70;21.20;98807;;;;594254;242;23087;-84
2022/09/27 10:19:31;;;;;;;13.77;12.30;;;22.20;97.80;21.10;98805;;;;595239;242;24062;-84
2022/09/27 10:22:02;;;;;;;14.10;12.80;;;21.70;98.80;20.50;98793;;;;594015;242;24063;-84
2022/09/27 10:24:30;;;;;;;17.10;15.17;;;21.70;98.90;20.00;98803;;;;589763;241;35227;-84
2022/09/27 10:26:57;;;;;;;15.17;13.47;;;21.10;99.90;19.50;98802;;;;593548;242;24081;-83
2022/09/27 10:29:31;;;;;;;14.83;12.70;;;20.60;99.90;19.20;98804;;;;593235;242;24103;-85
2022/09/27 10:32:02;;;;;;;14.23;12.40;;;20.20;99.90;18.90;98791;;;;593943;242;24053;-84
2022/09/27 10:34:38;;;;;;;15.93;11.40;;;19.90;99.90;18.60;98804;;;;581558;246;24116;-85
2022/09/27 10:37:12;;;;;;;13.37;11.50;;;19.50;99.90;18.30;98795;;;;572141;251;24213;-84
2022/09/27 10:39:43;;;;;;;16.33;12.83;;;19.00;99.90;18.10;98792;;;;575554;248;24158;-83
2022/09/27 10:42:35;;;;;;;21.40;13.53;;;18.80;99.90;18.00;98798;;;;575613;244;24107;-83
2022/09/27 10:45:29;;;;;;;18.60;13.13;;;18.60;99.90;17.80;98796;;;;576418;247;24104;-85
2022/09/27 10:48:00;;;;;;;15.23;12.63;;;18.40;99.90;17.70;98785;;;;565993;253;24110;-83
2022/09/27 10:50:28;;;;;;;15.57;12.20;;;18.30;99.90;17.70;98785;;;;581206;242;24114;-83
2022/09/27 10:53:13;;;;;;;17.83;12.63;;;18.30;99.90;17.70;98783;;;;573158;251;24124;-84
2022/09/27 10:55:41;;;;;;;16.30;13.03;;;18.30;99.90;17.40;98775;;;;572252;251;24157;-83
2022/09/27 10:58:09;;;;;;;16.17;13.47;;;18.10;99.90;17.40;98779;;;;576298;248;24196;-85
2022/09/27 11:00:37;;;;;;;15.83;12.80;;;18.00;99.90;17.30;98781;;;;582393;246;24153;-85
2022/09/27 11:03:08;;;;;;;19.63;13.90;;;17.90;99.90;17.30;98781;;;;583207;246;24177;-83
2022/09/27 11:05:36;;;;;;;14.93;13.33;;;17.80;99.90;17.10;98777;;;;571916;251;24125;-86
2022/09/27 11:08:18;;;;;;;19.23;13.43;;;17.70;99.90;16.90;98776;;;;576033;248;24101;-85
2022/09/27 11:11:05;;;;;;;21.00;13.43;;;17.50;99.90;16.90;98774;;;;581580;244;24092;-84
2022/09/27 11:13:36;;;;;;;15.23;13.37;;;17.40;99.90;17.00;98770;;;;573245;251;24112;-83
2022/09/27 11:16:30;;;;;;;17.37;13.43;;;17.50;99.90;17.00;98775;;;;584643;244;24084;-84
2022/09/27 11:19:19;;;;;;;22.23;14.97;;;17.70;99.90;17.20;98777;;;;573059;251;24081;-82
2022/09/27 11:22:00;;;;;;;18.33;14.87;;;17.70;99.90;17.40;98773;;;;572910;251;24124;-85
2022/09/27 11:25:07;;;;;;;18.20;14.27;;;17.80;99.90;17.50;98771;;;;572565;250;24176;-82
2022/09/27 11:28:08;;;;;;;19.80;13.33;;;18.00;99.90;17.70;98768;;;;571776;251;24113;-85
2022/09/27 11:30:54;;;;;;;14.73;13.10;;;18.30;99.90;17.90;98771;;;;557755;256;24146;-84
2022/09/27 11:33:49;;;;;;;15.27;13.17;;;18.30;99.90;17.90;98771;;;;591573;242;24084;-86
2022/09/27 11:36:28;;;;;;;14.67;11.97;;;18.40;99.90;17.80;98761;;;;587774;242;24104;-85
2022/09/27 11:39:00;;;;;;;14.93;12.63;;;18.30;99.90;17.70;98761;;;;594997;242;24068;-85
2022/09/27 11:41:57;;;;;;;13.27;11.83;;;18.20;99.90;17.60;98759;;;;592596;237;24065;-85
2022/09/27 11:44:45;;;;;;;19.47;12.53;;;18.10;99.90;17.50;98748;;;;590426;237;24057;-85
2022/09/27 11:47:40;;;;;;;15.20;12.07;;;18.00;99.90;17.40;98763;;;;594382;237;24071;-84
2022/09/27 11:50:17;;;;;;;12.57;11.17;;;18.00;99.90;17.50;98756;;;;589690;242;24124;-85
2022/09/27 11:53:07;;;;;;;13.77;10.40;;;18.00;99.90;17.60;98756;;;;586085;242;24069;-85
2022/09/27 11:55:50;;;;;;;11.33;10.10;;;18.10;99.90;17.70;98749;;;;595046;239;24067;-85
2022/09/27 11:58:57;;;;;;;10.00;9.00;;;18.10;99.90;17.80;98755;;;;595203;241;24096;-84